sensor_id;sensor_type;location;lat;lon;timestamp;P1;durP1;ratioP1;P2;durP2;ratioP2
20861;SDS011;10591;52.532;13.348;2022-11-02T00:02:16;10.20;;;9.00;;
20861;SDS011;10591;52.532;13.348;2022-11-02T00:04:46;9.45;;;8.48;;
20861;SDS011;10591;52.532;13.348;2022-11-02T00:07:17;11.73;;;9.00;;
20861;SDS011;10591;52.532;13.348;2022-11-02T00:09:47;10.03;;;8.78;;
20861;SDS011;10591;52.532;13.348;2022-11-02T00:12:18;8.98;;;8.08;;
20861;SDS011;10591;52.532;13.348;2022-11-02T00:14:48;10.48;;;8.93;;
20861;SDS011;10591;52.532;13.348;2022-11-02T00:17:18;10.53;;;7.70;;
20861;SDS011;10591;52.532;13.348;2022-11-02T00:19:49;11.20;;;8.80;;
20861;SDS011;10591;52.532;13.348;2022-11-02T00:22:21;9.83;;;8.08;;
20861;SDS011;10591;52.532;13.348;2022-11-02T00:24:52;9.23;;;8.33;;
20861;SDS011;10591;52.532;13.348;2022-11-02T00:27:22;10.43;;;8.68;;
20861;SDS011;10591;52.532;13.348;2022-11-02T00:29:53;9.88;;;8.43;;
20861;SDS011;10591;52.532;13.348;2022-11-02T00:32:23;9.95;;;8.23;;
20861;SDS011;10591;52.532;13.348;2022-11-02T00:34:54;11.10;;;8.85;;
20861;SDS011;10591;52.532;13.348;2022-11-02T00:37:25;10.38;;;8.68;;
20861;SDS011;10591;52.532;13.348;2022-11-02T00:39:55;25.12;;;19.95;;
20861;SDS011;10591;52.532;13.348;2022-11-02T00:42:25;9.30;;;7.97;;
20861;SDS011;10591;52.532;13.348;2022-11-02T00:44:56;9.23;;;8.28;;
20861;SDS011;10591;52.532;13.348;2022-11-02T00:47:26;10.30;;;8.15;;
20861;SDS011;10591;52.532;13.348;2022-11-02T00:49:57;9.25;;;7.78;;
20861;SDS011;10591;52.532;13.348;2022-11-02T00:52:28;9.35;;;7.53;;
20861;SDS011;10591;52.532;13.348;2022-11-02T00:54:59;9.20;;;7.97;;
20861;SDS011;10591;52.532;13.348;2022-11-02T00:57:29;11.93;;;7.95;;
20861;SDS011;10591;52.532;13.348;2022-11-02T01:00:00;8.15;;;7.35;;
20861;SDS011;10591;52.532;13.348;2022-11-02T01:02:31;9.70;;;7.58;;
20861;SDS011;10591;52.532;13.348;2022-11-02T01:05:03;9.00;;;7.35;;
20861;SDS011;10591;52.532;13.348;2022-11-02T01:07:34;9.00;;;7.72;;
20861;SDS011;10591;52.532;13.348;2022-11-02T01:10:07;14.75;;;10.32;;
20861;SDS011;10591;52.532;13.348;2022-11-02T01:12:38;8.73;;;6.95;;
20861;SDS011;10591;52.532;13.348;2022-11-02T01:15:10;8.78;;;7.00;;
20861;SDS011;10591;52.532;13.348;2022-11-02T01:17:41;9.73;;;6.92;;
20861;SDS011;10591;52.532;13.348;2022-11-02T01:20:12;8.35;;;7.10;;
20861;SDS011;10591;52.532;13.348;2022-11-02T01:22:42;8.33;;;7.00;;
20861;SDS011;10591;52.532;13.348;2022-11-02T01:25:12;8.50;;;6.37;;
20861;SDS011;10591;52.532;13.348;2022-11-02T01:27:43;6.80;;;6.08;;
20861;SDS011;10591;52.532;13.348;2022-11-02T01:30:14;6.67;;;5.97;;
20861;SDS011;10591;52.532;13.348;2022-11-02T01:32:45;7.08;;;6.35;;
20861;SDS011;10591;52.532;13.348;2022-11-02T01:35:15;8.63;;;5.40;;
20861;SDS011;10591;52.532;13.348;2022-11-02T01:37:46;9.50;;;5.83;;
20861;SDS011;10591;52.532;13.348;2022-11-02T01:40:16;6.72;;;5.40;;
20861;SDS011;10591;52.532;13.348;2022-11-02T01:42:46;5.72;;;5.15;;
20861;SDS011;10591;52.532;13.348;2022-11-02T01:45:17;5.97;;;5.00;;
20861;SDS011;10591;52.532;13.348;2022-11-02T01:47:47;6.45;;;5.05;;
20861;SDS011;10591;52.532;13.348;2022-11-02T01:50:19;8.18;;;4.87;;
20861;SDS011;10591;52.532;13.348;2022-11-02T01:52:51;5.90;;;5.22;;
20861;SDS011;10591;52.532;13.348;2022-11-02T01:55:24;6.47;;;5.40;;
20861;SDS011;10591;52.532;13.348;2022-11-02T01:57:58;6.20;;;4.67;;
20861;SDS011;10591;52.532;13.348;2022-11-02T02:00:33;5.80;;;4.67;;
20861;SDS011;10591;52.532;13.348;2022-11-02T02:03:12;6.53;;;4.95;;
20861;SDS011;10591;52.532;13.348;2022-11-02T02:05:48;7.28;;;4.75;;
20861;SDS011;10591;52.532;13.348;2022-11-02T02:08:25;6.20;;;4.67;;
20861;SDS011;10591;52.532;13.348;2022-11-02T02:10:57;5.53;;;4.40;;
20861;SDS011;10591;52.532;13.348;2022-11-02T02:13:28;5.75;;;4.62;;
20861;SDS011;10591;52.532;13.348;2022-11-02T02:16:13;7.55;;;4.55;;
20861;SDS011;10591;52.532;13.348;2022-11-02T02:18:47;5.60;;;4.03;;
20861;SDS011;10591;52.532;13.348;2022-11-02T02:21:28;7.67;;;5.75;;
20861;SDS011;10591;52.532;13.348;2022-11-02T02:29:38;5.60;;;4.40;;
20861;SDS011;10591;52.532;13.348;2022-11-02T02:32:14;5.53;;;3.98;;
20861;SDS011;10591;52.532;13.348;2022-11-02T02:34:52;5.87;;;4.10;;
20861;SDS011;10591;52.532;13.348;2022-11-02T02:37:26;4.55;;;4.00;;
20861;SDS011;10591;52.532;13.348;2022-11-02T02:40:03;4.90;;;3.90;;
20861;SDS011;10591;52.532;13.348;2022-11-02T02:42:50;4.65;;;3.47;;
20861;SDS011;10591;52.532;13.348;2022-11-02T02:45:28;5.95;;;3.62;;
20861;SDS011;10591;52.532;13.348;2022-11-02T02:48:10;4.47;;;3.55;;
20861;SDS011;10591;52.532;13.348;2022-11-02T02:50:44;4.55;;;3.42;;
20861;SDS011;10591;52.532;13.348;2022-11-02T02:53:19;4.30;;;3.45;;
20861;SDS011;10591;52.532;13.348;2022-11-02T02:55:55;4.12;;;3.37;;
20861;SDS011;10591;52.532;13.348;2022-11-02T02:58:31;3.95;;;3.33;;
20861;SDS011;10591;52.532;13.348;2022-11-02T03:01:03;4.72;;;3.20;;
20861;SDS011;10591;52.532;13.348;2022-11-02T03:03:35;5.70;;;3.27;;
20861;SDS011;10591;52.532;13.348;2022-11-02T03:06:15;4.83;;;3.30;;
20861;SDS011;10591;52.532;13.348;2022-11-02T03:08:56;3.47;;;3.17;;
20861;SDS011;10591;52.532;13.348;2022-11-02T03:11:23;4.40;;;3.20;;
20861;SDS011;10591;52.532;13.348;2022-11-02T03:14:09;5.28;;;3.50;;
20861;SDS011;10591;52.532;13.348;2022-11-02T03:17:02;4.45;;;2.72;;
20861;SDS011;10591;52.532;13.348;2022-11-02T03:19:36;3.72;;;3.00;;
20861;SDS011;10591;52.532;13.348;2022-11-02T03:22:12;5.30;;;2.83;;
20861;SDS011;10591;52.532;13.348;2022-11-02T03:27:40;4.62;;;2.77;;
20861;SDS011;10591;52.532;13.348;2022-11-02T03:30:12;6.87;;;3.02;;
20861;SDS011;10591;52.532;13.348;2022-11-02T03:35:37;4.67;;;3.12;;
20861;SDS011;10591;52.532;13.348;2022-11-02T03:38:16;4.62;;;2.70;;
20861;SDS011;10591;52.532;13.348;2022-11-02T03:40:49;5.15;;;3.08;;
20861;SDS011;10591;52.532;13.348;2022-11-02T03:43:23;7.12;;;2.90;;
20861;SDS011;10591;52.532;13.348;2022-11-02T03:45:54;5.53;;;2.90;;
20861;SDS011;10591;52.532;13.348;2022-11-02T03:48:33;4.47;;;3.00;;
20861;SDS011;10591;52.532;13.348;2022-11-02T03:51:02;5.40;;;2.70;;
20861;SDS011;10591;52.532;13.348;2022-11-02T03:53:45;4.42;;;3.00;;
20861;SDS011;10591;52.532;13.348;2022-11-02T03:56:27;3.58;;;2.70;;
20861;SDS011;10591;52.532;13.348;2022-11-02T03:58:56;3.33;;;2.60;;
20861;SDS011;10591;52.532;13.348;2022-11-02T04:01:27;5.58;;;3.17;;
20861;SDS011;10591;52.532;13.348;2022-11-02T04:04:00;4.85;;;2.75;;
20861;SDS011;10591;52.532;13.348;2022-11-02T04:06:32;4.87;;;2.87;;
20861;SDS011;10591;52.532;13.348;2022-11-02T04:09:04;4.28;;;2.80;;
20861;SDS011;10591;52.532;13.348;2022-11-02T04:11:34;4.83;;;3.30;;
20861;SDS011;10591;52.532;13.348;2022-11-02T04:14:22;5.67;;;2.80;;
20861;SDS011;10591;52.532;13.348;2022-11-02T04:17:08;4.58;;;3.27;;
20861;SDS011;10591;52.532;13.348;2022-11-02T04:19:59;6.50;;;3.15;;
20861;SDS011;10591;52.532;13.348;2022-11-02T04:22:30;7.40;;;3.27;;
20861;SDS011;10591;52.532;13.348;2022-11-02T04:25:24;4.42;;;3.45;;
20861;SDS011;10591;52.532;13.348;2022-11-02T04:27:54;7.08;;;3.17;;
20861;SDS011;10591;52.532;13.348;2022-11-02T04:30:25;6.15;;;3.20;;
20861;SDS011;10591;52.532;13.348;2022-11-02T04:32:55;6.60;;;3.83;;
20861;SDS011;10591;52.532;13.348;2022-11-02T04:35:43;5.63;;;3.30;;
20861;SDS011;10591;52.532;13.348;2022-11-02T04:38:14;4.90;;;3.12;;
20861;SDS011;10591;52.532;13.348;2022-11-02T04:41:02;5.80;;;3.00;;
20861;SDS011;10591;52.532;13.348;2022-11-02T04:43:52;7.00;;;3.05;;
20861;SDS011;10591;52.532;13.348;2022-11-02T04:46:23;7.05;;;3.08;;
20861;SDS011;10591;52.532;13.348;2022-11-02T04:48:56;6.00;;;3.10;;
20861;SDS011;10591;52.532;13.348;2022-11-02T04:51:27;4.95;;;3.15;;
20861;SDS011;10591;52.532;13.348;2022-11-02T04:53:58;5.83;;;3.08;;
20861;SDS011;10591;52.532;13.348;2022-11-02T04:56:29;5.65;;;3.20;;
20861;SDS011;10591;52.532;13.348;2022-11-02T04:58:59;3.02;;;2.47;;
20861;SDS011;10591;52.532;13.348;2022-11-02T05:01:30;6.67;;;2.80;;
20861;SDS011;10591;52.532;13.348;2022-11-02T05:04:01;4.70;;;3.02;;
20861;SDS011;10591;52.532;13.348;2022-11-02T05:06:31;5.40;;;2.83;;
20861;SDS011;10591;52.532;13.348;2022-11-02T05:09:02;6.10;;;2.98;;
20861;SDS011;10591;52.532;13.348;2022-11-02T05:11:32;10.40;;;3.00;;
20861;SDS011;10591;52.532;13.348;2022-11-02T05:14:03;6.62;;;3.10;;
20861;SDS011;10591;52.532;13.348;2022-11-02T05:16:39;6.28;;;3.40;;
20861;SDS011;10591;52.532;13.348;2022-11-02T05:19:09;5.97;;;2.75;;
20861;SDS011;10591;52.532;13.348;2022-11-02T05:21:40;5.30;;;3.25;;
20861;SDS011;10591;52.532;13.348;2022-11-02T05:24:10;5.80;;;2.98;;
20861;SDS011;10591;52.532;13.348;2022-11-02T05:26:40;4.55;;;2.75;;
20861;SDS011;10591;52.532;13.348;2022-11-02T05:29:11;6.12;;;2.62;;
20861;SDS011;10591;52.532;13.348;2022-11-02T05:31:41;5.35;;;2.70;;
20861;SDS011;10591;52.532;13.348;2022-11-02T05:34:12;6.53;;;3.10;;
20861;SDS011;10591;52.532;13.348;2022-11-02T05:36:42;8.20;;;3.00;;
20861;SDS011;10591;52.532;13.348;2022-11-02T05:39:14;6.97;;;2.92;;
20861;SDS011;10591;52.532;13.348;2022-11-02T05:41:44;6.87;;;2.98;;
20861;SDS011;10591;52.532;13.348;2022-11-02T05:44:15;5.60;;;3.20;;
20861;SDS011;10591;52.532;13.348;2022-11-02T05:46:45;5.57;;;2.90;;
20861;SDS011;10591;52.532;13.348;2022-11-02T05:49:15;7.63;;;3.13;;
20861;SDS011;10591;52.532;13.348;2022-11-02T05:51:46;7.58;;;2.62;;
20861;SDS011;10591;52.532;13.348;2022-11-02T05:54:17;6.72;;;2.90;;
20861;SDS011;10591;52.532;13.348;2022-11-02T05:56:49;6.05;;;2.60;;
20861;SDS011;10591;52.532;13.348;2022-11-02T05:59:19;8.25;;;3.00;;
20861;SDS011;10591;52.532;13.348;2022-11-02T06:01:49;8.00;;;2.40;;
20861;SDS011;10591;52.532;13.348;2022-11-02T06:04:20;6.87;;;2.40;;
20861;SDS011;10591;52.532;13.348;2022-11-02T06:06:51;7.80;;;2.35;;
20861;SDS011;10591;52.532;13.348;2022-11-02T06:09:21;4.50;;;2.60;;
20861;SDS011;10591;52.532;13.348;2022-11-02T06:11:51;5.85;;;2.62;;
20861;SDS011;10591;52.532;13.348;2022-11-02T06:14:22;8.00;;;3.50;;
20861;SDS011;10591;52.532;13.348;2022-11-02T06:16:52;8.93;;;3.08;;
20861;SDS011;10591;52.532;13.348;2022-11-02T06:19:24;5.58;;;2.52;;
20861;SDS011;10591;52.532;13.348;2022-11-02T06:21:55;8.23;;;2.83;;
20861;SDS011;10591;52.532;13.348;2022-11-02T06:24:25;4.42;;;2.80;;
20861;SDS011;10591;52.532;13.348;2022-11-02T06:26:56;4.57;;;2.60;;
20861;SDS011;10591;52.532;13.348;2022-11-02T06:29:26;5.20;;;2.45;;
20861;SDS011;10591;52.532;13.348;2022-11-02T06:31:57;6.35;;;2.83;;
20861;SDS011;10591;52.532;13.348;2022-11-02T06:34:27;5.72;;;2.47;;
20861;SDS011;10591;52.532;13.348;2022-11-02T06:36:57;7.72;;;2.87;;
20861;SDS011;10591;52.532;13.348;2022-11-02T06:39:28;6.53;;;2.47;;
20861;SDS011;10591;52.532;13.348;2022-11-02T06:41:58;4.75;;;2.60;;
20861;SDS011;10591;52.532;13.348;2022-11-02T06:44:28;9.13;;;2.77;;
20861;SDS011;10591;52.532;13.348;2022-11-02T06:46:59;9.28;;;2.90;;
20861;SDS011;10591;52.532;13.348;2022-11-02T06:49:29;6.25;;;3.05;;
20861;SDS011;10591;52.532;13.348;2022-11-02T06:52:00;5.60;;;2.50;;
20861;SDS011;10591;52.532;13.348;2022-11-02T06:54:30;9.93;;;6.22;;
20861;SDS011;10591;52.532;13.348;2022-11-02T06:57:00;12.78;;;3.42;;
20861;SDS011;10591;52.532;13.348;2022-11-02T06:59:31;6.67;;;2.80;;
20861;SDS011;10591;52.532;13.348;2022-11-02T07:02:01;8.20;;;2.80;;
20861;SDS011;10591;52.532;13.348;2022-11-02T07:04:32;5.53;;;2.50;;
20861;SDS011;10591;52.532;13.348;2022-11-02T07:07:02;8.70;;;2.72;;
20861;SDS011;10591;52.532;13.348;2022-11-02T07:09:33;8.58;;;3.27;;
20861;SDS011;10591;52.532;13.348;2022-11-02T07:12:05;5.35;;;2.77;;
20861;SDS011;10591;52.532;13.348;2022-11-02T07:14:35;5.60;;;2.55;;
20861;SDS011;10591;52.532;13.348;2022-11-02T07:17:06;5.37;;;2.60;;
20861;SDS011;10591;52.532;13.348;2022-11-02T07:19:36;7.25;;;2.85;;
20861;SDS011;10591;52.532;13.348;2022-11-02T07:22:06;8.93;;;2.90;;
20861;SDS011;10591;52.532;13.348;2022-11-02T07:24:36;6.28;;;2.90;;
20861;SDS011;10591;52.532;13.348;2022-11-02T07:27:07;7.35;;;2.55;;
20861;SDS011;10591;52.532;13.348;2022-11-02T07:29:37;7.42;;;3.05;;
20861;SDS011;10591;52.532;13.348;2022-11-02T07:32:08;5.75;;;2.90;;
20861;SDS011;10591;52.532;13.348;2022-11-02T07:34:38;6.25;;;2.90;;
20861;SDS011;10591;52.532;13.348;2022-11-02T07:37:08;9.08;;;2.80;;
20861;SDS011;10591;52.532;13.348;2022-11-02T07:39:39;8.60;;;2.52;;
20861;SDS011;10591;52.532;13.348;2022-11-02T07:42:09;8.43;;;3.00;;
20861;SDS011;10591;52.532;13.348;2022-11-02T07:44:40;7.80;;;2.75;;
20861;SDS011;10591;52.532;13.348;2022-11-02T07:47:10;7.40;;;2.85;;
20861;SDS011;10591;52.532;13.348;2022-11-02T07:49:40;5.53;;;2.75;;
20861;SDS011;10591;52.532;13.348;2022-11-02T07:52:11;9.20;;;2.70;;
20861;SDS011;10591;52.532;13.348;2022-11-02T07:54:42;7.10;;;2.45;;
20861;SDS011;10591;52.532;13.348;2022-11-02T07:57:12;7.72;;;2.47;;
20861;SDS011;10591;52.532;13.348;2022-11-02T07:59:43;6.12;;;3.30;;
20861;SDS011;10591;52.532;13.348;2022-11-02T08:02:15;8.05;;;2.75;;
20861;SDS011;10591;52.532;13.348;2022-11-02T08:04:45;5.58;;;2.83;;
20861;SDS011;10591;52.532;13.348;2022-11-02T08:07:16;7.28;;;2.95;;
20861;SDS011;10591;52.532;13.348;2022-11-02T08:09:46;8.13;;;2.70;;
20861;SDS011;10591;52.532;13.348;2022-11-02T08:12:17;5.72;;;2.50;;
20861;SDS011;10591;52.532;13.348;2022-11-02T08:14:47;4.42;;;2.50;;
20861;SDS011;10591;52.532;13.348;2022-11-02T08:17:17;7.97;;;2.67;;
20861;SDS011;10591;52.532;13.348;2022-11-02T08:19:49;5.60;;;2.35;;
20861;SDS011;10591;52.532;13.348;2022-11-02T08:22:19;6.03;;;2.75;;
20861;SDS011;10591;52.532;13.348;2022-11-02T08:24:50;3.95;;;2.55;;
20861;SDS011;10591;52.532;13.348;2022-11-02T08:27:20;10.98;;;2.80;;
20861;SDS011;10591;52.532;13.348;2022-11-02T08:29:51;5.58;;;2.70;;
20861;SDS011;10591;52.532;13.348;2022-11-02T08:32:21;8.33;;;2.67;;
20861;SDS011;10591;52.532;13.348;2022-11-02T08:34:51;5.45;;;2.60;;
20861;SDS011;10591;52.532;13.348;2022-11-02T08:37:22;7.22;;;3.02;;
20861;SDS011;10591;52.532;13.348;2022-11-02T08:39:52;7.08;;;2.85;;
20861;SDS011;10591;52.532;13.348;2022-11-02T08:42:22;8.35;;;3.00;;
20861;SDS011;10591;52.532;13.348;2022-11-02T08:44:54;7.67;;;2.80;;
20861;SDS011;10591;52.532;13.348;2022-11-02T08:47:24;7.05;;;2.70;;
20861;SDS011;10591;52.532;13.348;2022-11-02T08:49:54;7.08;;;2.95;;
20861;SDS011;10591;52.532;13.348;2022-11-02T08:52:25;5.83;;;2.60;;
20861;SDS011;10591;52.532;13.348;2022-11-02T08:54:55;6.78;;;2.70;;
20861;SDS011;10591;52.532;13.348;2022-11-02T08:57:25;5.25;;;2.55;;
20861;SDS011;10591;52.532;13.348;2022-11-02T08:59:56;5.67;;;2.60;;
20861;SDS011;10591;52.532;13.348;2022-11-02T09:02:27;9.65;;;3.20;;
20861;SDS011;10591;52.532;13.348;2022-11-02T09:04:57;7.65;;;2.67;;
20861;SDS011;10591;52.532;13.348;2022-11-02T09:07:27;5.20;;;2.37;;
20861;SDS011;10591;52.532;13.348;2022-11-02T09:09:58;4.92;;;2.60;;
20861;SDS011;10591;52.532;13.348;2022-11-02T09:12:28;6.67;;;2.47;;
20861;SDS011;10591;52.532;13.348;2022-11-02T09:15:00;4.85;;;2.37;;
20861;SDS011;10591;52.532;13.348;2022-11-02T09:17:30;5.45;;;2.70;;
20861;SDS011;10591;52.532;13.348;2022-11-02T09:20:01;6.20;;;2.40;;
20861;SDS011;10591;52.532;13.348;2022-11-02T09:22:31;7.83;;;2.80;;
20861;SDS011;10591;52.532;13.348;2022-11-02T09:25:02;8.53;;;2.42;;
20861;SDS011;10591;52.532;13.348;2022-11-02T09:27:32;5.70;;;2.40;;
20861;SDS011;10591;52.532;13.348;2022-11-02T09:30:03;5.92;;;2.60;;
20861;SDS011;10591;52.532;13.348;2022-11-02T09:32:34;6.78;;;2.70;;
20861;SDS011;10591;52.532;13.348;2022-11-02T09:35:06;6.15;;;2.37;;
20861;SDS011;10591;52.532;13.348;2022-11-02T09:37:38;5.87;;;2.50;;
20861;SDS011;10591;52.532;13.348;2022-11-02T09:40:12;6.72;;;2.70;;
20861;SDS011;10591;52.532;13.348;2022-11-02T09:45:20;6.67;;;2.72;;
20861;SDS011;10591;52.532;13.348;2022-11-02T09:48:04;7.55;;;2.37;;
20861;SDS011;10591;52.532;13.348;2022-11-02T09:50:41;6.78;;;2.25;;
20861;SDS011;10591;52.532;13.348;2022-11-02T09:53:13;5.72;;;2.35;;
20861;SDS011;10591;52.532;13.348;2022-11-02T09:55:50;6.20;;;3.75;;
20861;SDS011;10591;52.532;13.348;2022-11-02T09:58:23;8.25;;;3.58;;
20861;SDS011;10591;52.532;13.348;2022-11-02T10:00:56;5.53;;;2.33;;
20861;SDS011;10591;52.532;13.348;2022-11-02T10:03:33;3.92;;;2.10;;
20861;SDS011;10591;52.532;13.348;2022-11-02T10:06:22;9.00;;;3.37;;
20861;SDS011;10591;52.532;13.348;2022-11-02T10:14:27;8.93;;;2.27;;
20861;SDS011;10591;52.532;13.348;2022-11-02T10:17:14;6.22;;;2.02;;
20861;SDS011;10591;52.532;13.348;2022-11-02T10:20:09;7.45;;;2.15;;
20861;SDS011;10591;52.532;13.348;2022-11-02T10:22:27;6.08;;;2.20;;
20861;SDS011;10591;52.532;13.348;2022-11-02T10:24:59;7.17;;;2.40;;
20861;SDS011;10591;52.532;13.348;2022-11-02T10:27:35;7.40;;;2.50;;
20861;SDS011;10591;52.532;13.348;2022-11-02T10:32:46;5.97;;;2.15;;
20861;SDS011;10591;52.532;13.348;2022-11-02T10:35:31;5.42;;;2.10;;
20861;SDS011;10591;52.532;13.348;2022-11-02T10:43:41;4.62;;;2.17;;
20861;SDS011;10591;52.532;13.348;2022-11-02T10:46:28;5.45;;;2.12;;
20861;SDS011;10591;52.532;13.348;2022-11-02T10:52:07;6.42;;;2.40;;
20861;SDS011;10591;52.532;13.348;2022-11-02T10:54:39;9.05;;;2.30;;
20861;SDS011;10591;52.532;13.348;2022-11-02T10:57:17;6.58;;;2.42;;
20861;SDS011;10591;52.532;13.348;2022-11-02T10:59:43;4.62;;;2.08;;
20861;SDS011;10591;52.532;13.348;2022-11-02T11:02:13;7.25;;;2.12;;
20861;SDS011;10591;52.532;13.348;2022-11-02T11:04:50;5.17;;;2.10;;
20861;SDS011;10591;52.532;13.348;2022-11-02T11:07:24;8.30;;;2.45;;
20861;SDS011;10591;52.532;13.348;2022-11-02T11:09:56;3.77;;;1.85;;
20861;SDS011;10591;52.532;13.348;2022-11-02T11:12:30;6.80;;;2.15;;
20861;SDS011;10591;52.532;13.348;2022-11-02T11:15:03;7.15;;;1.98;;
20861;SDS011;10591;52.532;13.348;2022-11-02T11:17:36;6.85;;;2.25;;
20861;SDS011;10591;52.532;13.348;2022-11-02T11:23:10;5.97;;;2.12;;
20861;SDS011;10591;52.532;13.348;2022-11-02T11:26:04;6.08;;;2.42;;
20861;SDS011;10591;52.532;13.348;2022-11-02T11:29:20;5.97;;;2.22;;
20861;SDS011;10591;52.532;13.348;2022-11-02T11:31:22;6.47;;;2.20;;
20861;SDS011;10591;52.532;13.348;2022-11-02T11:33:54;6.60;;;2.08;;
20861;SDS011;10591;52.532;13.348;2022-11-02T11:39:15;5.47;;;2.20;;
20861;SDS011;10591;52.532;13.348;2022-11-02T11:41:48;6.78;;;2.25;;
20861;SDS011;10591;52.532;13.348;2022-11-02T11:44:19;5.55;;;2.10;;
20861;SDS011;10591;52.532;13.348;2022-11-02T11:46:52;7.42;;;2.52;;
20861;SDS011;10591;52.532;13.348;2022-11-02T11:49:30;5.92;;;2.62;;
20861;SDS011;10591;52.532;13.348;2022-11-02T11:51:59;7.60;;;2.35;;
20861;SDS011;10591;52.532;13.348;2022-11-02T11:54:32;5.80;;;2.27;;
20861;SDS011;10591;52.532;13.348;2022-11-02T11:57:20;3.77;;;2.05;;
20861;SDS011;10591;52.532;13.348;2022-11-02T11:59:51;6.70;;;2.30;;
20861;SDS011;10591;52.532;13.348;2022-11-02T12:02:24;6.83;;;2.40;;
20861;SDS011;10591;52.532;13.348;2022-11-02T12:05:13;6.42;;;2.17;;
20861;SDS011;10591;52.532;13.348;2022-11-02T12:08:00;6.03;;;2.25;;
20861;SDS011;10591;52.532;13.348;2022-11-02T12:10:41;5.35;;;2.35;;
20861;SDS011;10591;52.532;13.348;2022-11-02T12:16:18;6.90;;;2.10;;
20861;SDS011;10591;52.532;13.348;2022-11-02T12:25:02;4.17;;;1.90;;
20861;SDS011;10591;52.532;13.348;2022-11-02T12:27:44;4.92;;;2.30;;
20861;SDS011;10591;52.532;13.348;2022-11-02T12:30:45;6.75;;;2.90;;
20861;SDS011;10591;52.532;13.348;2022-11-02T12:44:26;5.50;;;1.90;;
20861;SDS011;10591;52.532;13.348;2022-11-02T12:47:11;4.85;;;1.95;;
20861;SDS011;10591;52.532;13.348;2022-11-02T12:55:30;5.97;;;2.20;;
20861;SDS011;10591;52.532;13.348;2022-11-02T12:58:05;4.08;;;1.95;;
20861;SDS011;10591;52.532;13.348;2022-11-02T13:06:40;2.70;;;1.60;;
20861;SDS011;10591;52.532;13.348;2022-11-02T13:09:15;2.90;;;1.60;;
20861;SDS011;10591;52.532;13.348;2022-11-02T13:14:45;4.17;;;2.08;;
20861;SDS011;10591;52.532;13.348;2022-11-02T13:17:17;4.92;;;2.30;;
20861;SDS011;10591;52.532;13.348;2022-11-02T13:19:59;4.80;;;1.80;;
20861;SDS011;10591;52.532;13.348;2022-11-02T13:22:53;2.33;;;1.72;;
20861;SDS011;10591;52.532;13.348;2022-11-02T13:25:27;6.75;;;1.80;;
20861;SDS011;10591;52.532;13.348;2022-11-02T13:28:04;2.85;;;1.60;;
20861;SDS011;10591;52.532;13.348;2022-11-02T13:30:42;4.42;;;1.82;;
20861;SDS011;10591;52.532;13.348;2022-11-02T13:33:22;7.08;;;2.20;;
20861;SDS011;10591;52.532;13.348;2022-11-02T13:36:04;6.42;;;2.12;;
20861;SDS011;10591;52.532;13.348;2022-11-02T13:38:45;5.25;;;2.00;;
20861;SDS011;10591;52.532;13.348;2022-11-02T13:44:35;5.08;;;1.80;;
20861;SDS011;10591;52.532;13.348;2022-11-02T13:50:17;4.35;;;2.62;;
20861;SDS011;10591;52.532;13.348;2022-11-02T13:53:03;4.60;;;2.20;;
20861;SDS011;10591;52.532;13.348;2022-11-02T13:55:42;3.80;;;1.85;;
20861;SDS011;10591;52.532;13.348;2022-11-02T13:58:39;3.87;;;1.90;;
20861;SDS011;10591;52.532;13.348;2022-11-02T14:01:06;5.00;;;2.05;;
20861;SDS011;10591;52.532;13.348;2022-11-02T14:03:44;6.08;;;2.10;;
20861;SDS011;10591;52.532;13.348;2022-11-02T14:06:21;3.02;;;1.75;;
20861;SDS011;10591;52.532;13.348;2022-11-02T14:09:00;4.85;;;2.10;;
20861;SDS011;10591;52.532;13.348;2022-11-02T14:14:19;3.90;;;2.20;;
20861;SDS011;10591;52.532;13.348;2022-11-02T14:19:30;3.90;;;2.02;;
20861;SDS011;10591;52.532;13.348;2022-11-02T14:22:06;7.12;;;2.25;;
20861;SDS011;10591;52.532;13.348;2022-11-02T14:29:55;5.30;;;2.67;;
20861;SDS011;10591;52.532;13.348;2022-11-02T14:32:38;4.80;;;2.20;;
20861;SDS011;10591;52.532;13.348;2022-11-02T14:48:50;3.42;;;1.98;;
20861;SDS011;10591;52.532;13.348;2022-11-02T14:51:23;4.85;;;2.00;;
20861;SDS011;10591;52.532;13.348;2022-11-02T14:54:00;4.10;;;2.12;;
20861;SDS011;10591;52.532;13.348;2022-11-02T14:59:34;2.67;;;2.02;;
20861;SDS011;10591;52.532;13.348;2022-11-02T15:04:47;6.10;;;2.02;;
20861;SDS011;10591;52.532;13.348;2022-11-02T15:07:21;4.05;;;1.80;;
20861;SDS011;10591;52.532;13.348;2022-11-02T15:09:58;3.70;;;2.02;;
20861;SDS011;10591;52.532;13.348;2022-11-02T15:12:39;2.90;;;1.82;;
20861;SDS011;10591;52.532;13.348;2022-11-02T15:18:12;4.95;;;1.85;;
20861;SDS011;10591;52.532;13.348;2022-11-02T15:29:05;3.90;;;2.20;;
20861;SDS011;10591;52.532;13.348;2022-11-02T15:31:38;3.22;;;2.02;;
20861;SDS011;10591;52.532;13.348;2022-11-02T15:34:11;6.42;;;2.10;;
20861;SDS011;10591;52.532;13.348;2022-11-02T15:36:45;5.33;;;1.85;;
20861;SDS011;10591;52.532;13.348;2022-11-02T15:39:16;2.42;;;1.80;;
20861;SDS011;10591;52.532;13.348;2022-11-02T15:42:50;3.70;;;2.50;;
20861;SDS011;10591;52.532;13.348;2022-11-02T15:47:33;5.12;;;1.90;;
20861;SDS011;10591;52.532;13.348;2022-11-02T15:56:17;5.25;;;2.10;;
20861;SDS011;10591;52.532;13.348;2022-11-02T16:01:27;3.72;;;2.17;;
20861;SDS011;10591;52.532;13.348;2022-11-02T16:04:01;4.28;;;2.25;;
20861;SDS011;10591;52.532;13.348;2022-11-02T16:06:35;3.72;;;2.00;;
20861;SDS011;10591;52.532;13.348;2022-11-02T16:09:29;4.75;;;2.20;;
20861;SDS011;10591;52.532;13.348;2022-11-02T16:12:01;6.05;;;2.90;;
20861;SDS011;10591;52.532;13.348;2022-11-02T16:14:50;4.72;;;2.30;;
20861;SDS011;10591;52.532;13.348;2022-11-02T16:17:29;5.53;;;2.35;;
20861;SDS011;10591;52.532;13.348;2022-11-02T16:20:10;5.97;;;3.30;;
20861;SDS011;10591;52.532;13.348;2022-11-02T16:22:57;6.50;;;2.45;;
20861;SDS011;10591;52.532;13.348;2022-11-02T16:25:40;5.22;;;2.45;;
20861;SDS011;10591;52.532;13.348;2022-11-02T16:28:25;4.55;;;2.30;;
20861;SDS011;10591;52.532;13.348;2022-11-02T16:31:07;5.12;;;2.65;;
20861;SDS011;10591;52.532;13.348;2022-11-02T16:33:47;4.78;;;2.33;;
20861;SDS011;10591;52.532;13.348;2022-11-02T16:36:19;4.03;;;2.45;;
20861;SDS011;10591;52.532;13.348;2022-11-02T16:39:35;6.67;;;2.67;;
20861;SDS011;10591;52.532;13.348;2022-11-02T16:41:28;4.78;;;2.70;;
20861;SDS011;10591;52.532;13.348;2022-11-02T16:44:02;6.47;;;3.83;;
20861;SDS011;10591;52.532;13.348;2022-11-02T16:46:49;6.58;;;3.20;;
20861;SDS011;10591;52.532;13.348;2022-11-02T16:49:25;5.92;;;2.70;;
20861;SDS011;10591;52.532;13.348;2022-11-02T16:52:15;4.62;;;2.77;;
20861;SDS011;10591;52.532;13.348;2022-11-02T16:54:45;6.08;;;2.37;;
20861;SDS011;10591;52.532;13.348;2022-11-02T16:59:56;7.50;;;2.60;;
20861;SDS011;10591;52.532;13.348;2022-11-02T17:05:15;4.95;;;2.42;;
20861;SDS011;10591;52.532;13.348;2022-11-02T17:10:31;3.70;;;2.37;;
20861;SDS011;10591;52.532;13.348;2022-11-02T17:13:04;5.33;;;2.65;;
20861;SDS011;10591;52.532;13.348;2022-11-02T17:15:36;5.25;;;3.20;;
20861;SDS011;10591;52.532;13.348;2022-11-02T17:20:42;5.58;;;2.67;;
20861;SDS011;10591;52.532;13.348;2022-11-02T17:23:30;6.60;;;2.25;;
20861;SDS011;10591;52.532;13.348;2022-11-02T17:28:53;5.28;;;2.40;;
20861;SDS011;10591;52.532;13.348;2022-11-02T17:31:35;6.95;;;2.70;;
20861;SDS011;10591;52.532;13.348;2022-11-02T17:34:09;5.40;;;2.45;;
20861;SDS011;10591;52.532;13.348;2022-11-02T17:36:44;4.85;;;2.37;;
20861;SDS011;10591;52.532;13.348;2022-11-02T17:39:19;4.22;;;2.10;;